createdAt,value
2023-05-06T00:00:22.451Z,14.84
2023-05-06T00:03:44.381Z,14.93
2023-05-06T00:07:06.389Z,14.96
2023-05-06T00:10:30.286Z,14.74
2023-05-06T00:13:54.736Z,14.45
2023-05-06T00:17:18.708Z,14.48
2023-05-06T00:20:40.510Z,14.70
2023-05-06T00:24:02.159Z,14.77
2023-05-06T00:27:26.339Z,14.63
2023-05-06T00:30:47.937Z,14.38
2023-05-06T00:34:14.877Z,14.61
2023-05-06T00:37:36.952Z,14.47
2023-05-06T00:40:58.661Z,14.61
2023-05-06T00:44:20.306Z,14.54
2023-05-06T00:47:42.315Z,14.57
2023-05-06T00:51:04.672Z,14.52
2023-05-06T00:54:26.948Z,14.41
2023-05-06T00:57:53.891Z,14.44
2023-05-06T01:01:18.601Z,14.50
2023-05-06T01:04:43.267Z,14.31
2023-05-06T01:08:24.644Z,14.24
2023-05-06T01:11:51.793Z,14.38
2023-05-06T01:15:25.279Z,14.34
2023-05-06T01:18:50.775Z,14.24
2023-05-06T01:22:20.768Z,14.23
2023-05-06T01:25:45.080Z,14.12
2023-05-06T01:29:08.874Z,14.09
2023-05-06T01:32:51.015Z,14.16
2023-05-06T01:36:37.058Z,13.98
2023-05-06T01:40:00.820Z,14.23
2023-05-06T01:43:26.544Z,14.23
2023-05-06T01:46:49.373Z,14.36
2023-05-06T01:50:11.455Z,14.08
2023-05-06T01:53:35.984Z,13.87
2023-05-06T01:56:57.627Z,13.85
2023-05-06T02:00:19.251Z,13.79
2023-05-06T02:03:43.128Z,13.72
2023-05-06T02:07:07.265Z,13.93
2023-05-06T02:10:29.012Z,13.74
2023-05-06T02:13:50.612Z,13.55
2023-05-06T02:17:12.499Z,13.72
2023-05-06T02:20:34.153Z,13.59
2023-05-06T02:23:55.806Z,13.53
2023-05-06T02:27:17.398Z,13.65
2023-05-06T02:30:39.065Z,13.82
2023-05-06T02:34:00.695Z,13.72
2023-05-06T02:37:22.426Z,13.82
2023-05-06T02:40:44.025Z,13.78
2023-05-06T02:44:06.206Z,13.74
2023-05-06T02:47:30.590Z,13.78
2023-05-06T02:50:54.805Z,13.83
2023-05-06T02:54:18.757Z,13.85
2023-05-06T02:57:40.430Z,13.65
2023-05-06T03:01:02.011Z,13.64
2023-05-06T03:04:23.747Z,13.64
2023-05-06T03:07:47.723Z,13.58
2023-05-06T03:11:09.374Z,13.74
2023-05-06T03:14:31.760Z,13.83
2023-05-06T03:17:53.692Z,13.81
2023-05-06T03:21:15.441Z,13.87
2023-05-06T03:24:37.167Z,13.74
2023-05-06T03:27:58.764Z,13.59
2023-05-06T03:31:20.412Z,13.41
2023-05-06T03:34:41.998Z,13.37
2023-05-06T03:38:03.661Z,13.40
2023-05-06T03:41:25.770Z,13.43
2023-05-06T03:44:47.453Z,13.51
2023-05-06T03:48:13.750Z,13.75
2023-05-06T03:51:37.787Z,13.74
2023-05-06T03:54:59.410Z,13.81
2023-05-06T03:58:21.482Z,13.68
2023-05-06T04:01:47.931Z,13.78
2023-05-06T04:05:12.293Z,13.71
2023-05-06T04:08:34.063Z,13.71
2023-05-06T04:11:55.970Z,13.78
2023-05-06T04:15:17.650Z,13.79
2023-05-06T04:18:41.778Z,13.86
2023-05-06T04:22:03.434Z,13.85
2023-05-06T04:25:25.137Z,13.87
2023-05-06T04:28:49.088Z,13.92
2023-05-06T04:32:13.705Z,14.01
2023-05-06T04:35:35.569Z,14.19
2023-05-06T04:38:59.456Z,14.31
2023-05-06T04:42:21.358Z,14.43
2023-05-06T04:45:55.386Z,14.58
2023-05-06T04:49:17.018Z,14.72
2023-05-06T04:52:38.642Z,14.74
2023-05-06T04:56:00.243Z,14.75
2023-05-06T04:59:24.214Z,14.96
2023-05-06T05:02:48.099Z,14.91
2023-05-06T05:06:10.121Z,14.93
2023-05-06T05:09:31.726Z,14.96
2023-05-06T05:12:53.472Z,15.05
2023-05-06T05:16:15.172Z,15.16
2023-05-06T05:19:39.277Z,15.06
2023-05-06T05:23:00.827Z,14.91
2023-05-06T05:26:22.484Z,15.06
2023-05-06T05:29:44.079Z,15.08
2023-05-06T05:33:08.172Z,15.10
2023-05-06T05:36:29.816Z,15.27
2023-05-06T05:39:53.534Z,15.29
2023-05-06T05:43:17.723Z,15.46
2023-05-06T05:46:43.996Z,15.67
2023-05-06T05:50:06.936Z,15.94
2023-05-06T05:53:28.848Z,16.21
2023-05-06T05:56:50.649Z,16.53
2023-05-06T06:00:13.562Z,16.97
2023-05-06T06:03:35.507Z,17.76
2023-05-06T06:07:01.893Z,18.01
2023-05-06T06:10:23.497Z,18.22
2023-05-06T06:13:45.124Z,18.63
2023-05-06T06:17:07.146Z,19.07
2023-05-06T06:20:28.968Z,19.47
2023-05-06T06:23:52.751Z,19.47
2023-05-06T06:27:14.344Z,19.45
2023-05-06T06:30:35.898Z,20.00
2023-05-06T06:33:57.516Z,20.13
2023-05-06T06:37:19.163Z,20.03
2023-05-06T06:40:40.906Z,20.19
2023-05-06T06:44:04.992Z,20.51
2023-05-06T06:47:28.691Z,20.64
2023-05-06T06:50:50.580Z,20.45
2023-05-06T06:54:12.185Z,20.57
2023-05-06T06:57:33.747Z,20.44
2023-05-06T07:00:55.380Z,19.93
2023-05-06T07:04:17.011Z,19.97
2023-05-06T07:07:38.706Z,20.33
2023-05-06T07:11:02.663Z,20.68
2023-05-06T07:14:25.823Z,20.91
2023-05-06T07:17:47.614Z,21.29
2023-05-06T07:21:09.394Z,21.56
2023-05-06T07:24:33.310Z,21.78
2023-05-06T07:27:54.983Z,22.15
2023-05-06T07:31:21.098Z,22.28
2023-05-06T07:34:42.786Z,22.22
2023-05-06T07:38:04.408Z,22.05
2023-05-06T07:41:26.452Z,21.53
2023-05-06T07:44:48.021Z,21.81
2023-05-06T07:48:09.960Z,22.02
2023-05-06T07:51:34.282Z,21.75
2023-05-06T07:54:55.981Z,21.98
2023-05-06T07:58:22.784Z,22.28
2023-05-06T08:01:44.416Z,21.92
2023-05-06T08:05:11.904Z,22.02
2023-05-06T08:08:36.533Z,21.85
2023-05-06T08:12:00.459Z,21.87
2023-05-06T08:15:22.065Z,21.90
2023-05-06T08:18:43.712Z,22.32
2023-05-06T08:22:10.253Z,22.59
2023-05-06T08:25:34.330Z,22.97
2023-05-06T08:28:57.742Z,22.43
2023-05-06T08:32:19.513Z,22.63
2023-05-06T08:35:41.146Z,22.28
2023-05-06T08:39:02.906Z,22.63
2023-05-06T08:42:30.306Z,22.40
2023-05-06T08:45:51.955Z,22.22
2023-05-06T08:49:16.547Z,22.59
2023-05-06T08:52:43.619Z,23.19
2023-05-06T08:56:11.630Z,23.21
2023-05-06T08:59:34.254Z,23.22
2023-05-06T09:03:01.777Z,23.51
2023-05-06T09:06:24.195Z,23.58
2023-05-06T09:09:50.446Z,23.82
2023-05-06T09:13:17.039Z,24.37
2023-05-06T09:16:42.699Z,24.21
2023-05-06T09:20:09.496Z,24.21
2023-05-06T09:23:33.712Z,24.06
2023-05-06T09:26:56.950Z,23.28
2023-05-06T09:30:21.097Z,23.21
2023-05-06T09:33:47.469Z,23.61
2023-05-06T09:37:16.091Z,23.55
2023-05-06T09:40:38.575Z,23.41
2023-05-06T09:44:00.436Z,23.73
2023-05-06T09:47:24.086Z,24.24
2023-05-06T09:50:48.189Z,24.93
2023-05-06T09:54:10.342Z,24.55
2023-05-06T09:57:35.241Z,24.55
2023-05-06T10:00:57.293Z,24.75
2023-05-06T10:04:26.305Z,24.27
2023-05-06T10:07:49.807Z,24.38
2023-05-06T10:11:11.898Z,23.86
2023-05-06T10:14:33.464Z,23.58
2023-05-06T10:17:58.097Z,23.51
2023-05-06T10:21:24.271Z,23.37
2023-05-06T10:24:58.807Z,23.42
2023-05-06T10:28:31.558Z,23.49
2023-05-06T10:32:02.089Z,23.55
2023-05-06T10:35:44.493Z,23.29
2023-05-06T10:39:10.240Z,23.18
2023-05-06T10:42:38.040Z,23.25
2023-05-06T10:46:17.301Z,23.22
2023-05-06T10:49:39.136Z,23.44
2023-05-06T10:53:03.163Z,23.42
2023-05-06T10:56:29.436Z,23.83
2023-05-06T10:59:54.836Z,24.18
2023-05-06T11:03:18.915Z,24.72
2023-05-06T11:06:44.789Z,25.00
2023-05-06T11:10:10.567Z,24.89
2023-05-06T11:13:35.376Z,24.51
2023-05-06T11:17:02.188Z,24.83
2023-05-06T11:20:26.997Z,24.20
2023-05-06T11:23:54.383Z,24.30
2023-05-06T11:27:21.575Z,24.83
2023-05-06T11:30:54.161Z,25.27
2023-05-06T11:34:28.855Z,25.09
2023-05-06T11:37:52.216Z,24.62
2023-05-06T11:41:15.258Z,24.22
2023-05-06T11:44:38.683Z,23.93
2023-05-06T11:48:00.268Z,23.92
2023-05-06T11:51:22.999Z,23.87
2023-05-06T11:54:44.605Z,24.03
2023-05-06T11:58:06.182Z,23.96
2023-05-06T12:01:30.108Z,23.87
2023-05-06T12:04:54.141Z,23.90
2023-05-06T12:08:27.562Z,23.82
2023-05-06T12:11:50.518Z,23.59
2023-05-06T12:15:14.710Z,23.53
2023-05-06T12:18:38.656Z,23.44
2023-05-06T12:22:22.023Z,23.41
2023-05-06T12:25:49.098Z,23.39
2023-05-06T12:29:12.848Z,23.44
2023-05-06T12:32:56.489Z,23.38
2023-05-06T12:36:19.461Z,23.21
2023-05-06T12:39:45.840Z,23.25
2023-05-06T12:43:08.289Z,23.06
2023-05-06T12:46:29.998Z,23.21
2023-05-06T12:49:52.582Z,23.19
2023-05-06T12:53:30.063Z,23.19
2023-05-06T12:56:54.078Z,23.21
2023-05-06T13:00:18.933Z,23.15
2023-05-06T13:03:43.016Z,23.12
2023-05-06T13:07:04.833Z,23.19
2023-05-06T13:10:31.314Z,23.14
2023-05-06T13:13:52.948Z,23.19
2023-05-06T13:17:14.742Z,23.28
2023-05-06T13:20:36.689Z,23.19
2023-05-06T13:23:58.679Z,23.14
2023-05-06T13:27:20.247Z,23.14
2023-05-06T13:30:44.727Z,23.07
2023-05-06T13:34:11.126Z,23.21
2023-05-06T13:37:35.188Z,23.06
2023-05-06T13:40:56.757Z,22.97
2023-05-06T13:44:19.457Z,22.91
2023-05-06T13:47:43.041Z,22.86
2023-05-06T13:51:07.654Z,22.91
2023-05-06T13:54:29.237Z,22.69
2023-05-06T13:57:53.061Z,22.67
2023-05-06T14:01:14.669Z,22.70
2023-05-06T14:04:36.463Z,22.71
2023-05-06T14:08:05.407Z,22.64
2023-05-06T14:11:26.999Z,22.52
2023-05-06T14:14:48.544Z,22.45
2023-05-06T14:18:10.275Z,21.77
2023-05-06T14:21:34.593Z,21.75
2023-05-06T14:24:56.209Z,21.58
2023-05-06T14:28:23.470Z,21.67
2023-05-06T14:31:47.298Z,21.50
2023-05-06T14:35:09.749Z,20.89
2023-05-06T14:38:31.591Z,20.77
2023-05-06T14:41:55.587Z,21.05
2023-05-06T14:45:19.655Z,21.03
2023-05-06T14:48:41.633Z,20.75
2023-05-06T14:52:03.317Z,20.70
2023-05-06T14:55:25.146Z,20.98
2023-05-06T14:58:51.592Z,21.15
2023-05-06T15:02:15.677Z,21.22
2023-05-06T15:05:42.027Z,20.91
2023-05-06T15:09:04.255Z,20.63
2023-05-06T15:12:28.616Z,20.78
2023-05-06T15:15:55.293Z,20.72
2023-05-06T15:19:16.907Z,20.74
2023-05-06T15:22:39.712Z,20.63
2023-05-06T15:26:01.504Z,20.58
2023-05-06T15:29:28.628Z,20.64
2023-05-06T15:32:50.590Z,20.57
2023-05-06T15:36:16.981Z,20.68
2023-05-06T15:39:38.747Z,20.47
2023-05-06T15:43:08.443Z,20.45
2023-05-06T15:46:31.673Z,20.58
2023-05-06T15:49:54.981Z,20.60
2023-05-06T15:53:18.636Z,20.77
2023-05-06T15:56:41.375Z,20.85
2023-05-06T16:00:05.505Z,20.72
2023-05-06T16:03:27.345Z,20.27
2023-05-06T16:06:52.184Z,20.37
2023-05-06T16:10:13.883Z,20.33
2023-05-06T16:13:35.488Z,20.77
2023-05-06T16:16:58.271Z,20.54
2023-05-06T16:20:22.544Z,20.61
2023-05-06T16:23:46.615Z,20.64
2023-05-06T16:27:08.254Z,20.75
2023-05-06T16:30:32.069Z,20.81
2023-05-06T16:33:56.533Z,20.70
2023-05-06T16:37:20.771Z,20.65
2023-05-06T16:40:51.049Z,20.74
2023-05-06T16:44:12.662Z,20.64
2023-05-06T16:47:34.387Z,20.71
2023-05-06T16:51:01.224Z,20.92
2023-05-06T16:54:22.849Z,20.87
2023-05-06T16:57:46.739Z,20.81
2023-05-06T17:01:08.560Z,20.84
2023-05-06T17:04:30.370Z,20.88
2023-05-06T17:07:56.474Z,20.99
2023-05-06T17:11:18.129Z,20.79
2023-05-06T17:14:41.494Z,20.71
2023-05-06T17:18:05.631Z,20.67
2023-05-06T17:21:29.574Z,20.58
2023-05-06T17:24:51.545Z,20.51
2023-05-06T17:28:16.823Z,20.47
2023-05-06T17:31:39.674Z,20.44
2023-05-06T17:35:01.353Z,20.41
2023-05-06T17:38:23.073Z,20.30
2023-05-06T17:41:47.030Z,20.24
2023-05-06T17:45:09.080Z,20.19
2023-05-06T17:48:33.634Z,20.19
2023-05-06T17:51:56.076Z,20.09
2023-05-06T17:55:17.911Z,20.09
2023-05-06T17:58:41.893Z,20.08
2023-05-06T18:02:08.507Z,20.09
2023-05-06T18:05:32.472Z,20.05
2023-05-06T18:08:54.100Z,19.92
2023-05-06T18:12:15.688Z,19.85
2023-05-06T18:15:39.681Z,19.95
2023-05-06T18:19:03.383Z,20.05
2023-05-06T18:22:28.047Z,20.02
2023-05-06T18:25:52.049Z,19.96
2023-05-06T18:29:18.381Z,19.95
2023-05-06T18:32:42.497Z,19.93
2023-05-06T18:36:06.607Z,19.95
2023-05-06T18:39:30.513Z,19.92
2023-05-06T18:42:53.175Z,19.76
2023-05-06T18:46:14.847Z,19.71
2023-05-06T18:49:39.191Z,19.65
2023-05-06T18:53:00.815Z,19.58
2023-05-06T18:56:22.463Z,19.58
2023-05-06T18:59:44.018Z,19.59
2023-05-06T19:03:05.733Z,19.59
2023-05-06T19:06:27.343Z,19.65
2023-05-06T19:09:49.042Z,19.45
2023-05-06T19:13:10.796Z,19.41
2023-05-06T19:16:35.276Z,19.27
2023-05-06T19:19:59.130Z,19.21
2023-05-06T19:23:22.845Z,19.21
2023-05-06T19:26:46.945Z,19.24
2023-05-06T19:30:11.570Z,19.24
2023-05-06T19:33:36.097Z,19.30
2023-05-06T19:36:58.556Z,19.26
2023-05-06T19:40:22.813Z,19.21
2023-05-06T19:43:46.977Z,19.31
2023-05-06T19:47:13.425Z,19.28
2023-05-06T19:50:37.276Z,19.24
2023-05-06T19:54:01.147Z,19.16
2023-05-06T19:57:22.799Z,19.13
2023-05-06T20:00:49.632Z,19.18
2023-05-06T20:04:12.139Z,19.00
2023-05-06T20:07:33.923Z,19.04
2023-05-06T20:10:57.894Z,19.07
2023-05-06T20:14:19.474Z,19.04
2023-05-06T20:17:41.177Z,19.04
2023-05-06T20:21:04.978Z,18.93
2023-05-06T20:24:31.030Z,18.90
2023-05-06T20:27:55.270Z,18.70
2023-05-06T20:31:19.216Z,18.76
2023-05-06T20:34:40.819Z,18.80
2023-05-06T20:38:03.106Z,18.86
2023-05-06T20:41:24.723Z,18.90
2023-05-06T20:44:46.370Z,19.04
2023-05-06T20:48:12.344Z,19.17
2023-05-06T20:51:35.441Z,19.09
2023-05-06T20:55:01.849Z,19.11
2023-05-06T20:58:28.573Z,18.97
2023-05-06T21:01:52.476Z,19.06
2023-05-06T21:05:16.610Z,19.06
2023-05-06T21:08:38.201Z,18.95
2023-05-06T21:12:02.542Z,18.88
2023-05-06T21:15:24.102Z,18.85
2023-05-06T21:18:48.069Z,18.83
2023-05-06T21:22:11.107Z,18.89
2023-05-06T21:25:32.882Z,18.85
2023-05-06T21:28:54.429Z,18.76
2023-05-06T21:32:16.079Z,18.85
2023-05-06T21:35:37.979Z,18.65
2023-05-06T21:39:08.018Z,18.77
2023-05-06T21:42:34.417Z,18.79
2023-05-06T21:45:58.476Z,18.69
2023-05-06T21:49:25.409Z,18.55
2023-05-06T21:52:49.379Z,18.42
2023-05-06T21:56:10.967Z,18.35
2023-05-06T21:59:32.566Z,18.38
2023-05-06T22:02:54.713Z,18.37
2023-05-06T22:06:16.629Z,18.31
2023-05-06T22:09:39.427Z,18.25
2023-05-06T22:13:03.833Z,18.24
2023-05-06T22:16:25.669Z,18.24
2023-05-06T22:19:49.718Z,18.05
2023-05-06T22:23:16.451Z,18.08
2023-05-06T22:26:40.676Z,18.00
2023-05-06T22:30:03.614Z,17.93
2023-05-06T22:33:26.474Z,17.96
2023-05-06T22:36:51.067Z,17.97
2023-05-06T22:40:13.290Z,18.00
2023-05-06T22:43:37.170Z,18.08
2023-05-06T22:46:58.819Z,18.25
2023-05-06T22:50:25.462Z,18.34
2023-05-06T22:53:47.679Z,18.35
2023-05-06T22:57:09.308Z,18.38
2023-05-06T23:00:31.221Z,18.22
2023-05-06T23:03:55.294Z,18.31
2023-05-06T23:07:16.933Z,18.13
2023-05-06T23:10:38.537Z,17.91
2023-05-06T23:14:02.675Z,17.87
2023-05-06T23:17:26.382Z,17.82
2023-05-06T23:20:48.086Z,17.82
2023-05-06T23:24:10.210Z,17.97
2023-05-06T23:27:31.780Z,17.84
2023-05-06T23:30:55.861Z,17.73
2023-05-06T23:34:22.972Z,17.70
2023-05-06T23:37:44.575Z,17.61
2023-05-06T23:41:06.550Z,17.50
2023-05-06T23:44:28.089Z,17.49
2023-05-06T23:47:49.756Z,17.38
2023-05-06T23:51:11.405Z,17.40
2023-05-06T23:54:33.006Z,17.42
2023-05-06T23:57:54.762Z,17.40
